sensor_id;sensor_type;location;lat;lon;timestamp;pressure;altitude;pressure_sealevel;temperature;humidity
36664;BME280;53333;51.976;20.144;2023-03-03T00:00:11;100605.22;;;-0.64;51.13
36664;BME280;53333;51.976;20.144;2023-03-03T00:02:44;100603.44;;;-0.66;51.20
36664;BME280;53333;51.976;20.144;2023-03-03T00:05:17;100596.41;;;-0.69;51.35
36664;BME280;53333;51.976;20.144;2023-03-03T00:07:52;100591.16;;;-0.69;51.33
36664;BME280;53333;51.976;20.144;2023-03-03T00:10:24;100599.94;;;-0.68;51.24
36664;BME280;53333;51.976;20.144;2023-03-03T00:12:57;100599.03;;;-0.69;51.36
36664;BME280;53333;51.976;20.144;2023-03-03T00:15:30;100592.91;;;-0.69;51.27
36664;BME280;53333;51.976;20.144;2023-03-03T00:18:05;100591.16;;;-0.67;51.18
36664;BME280;53333;51.976;20.144;2023-03-03T00:20:47;100592.94;;;-0.66;51.29
36664;BME280;53333;51.976;20.144;2023-03-03T00:23:25;100587.69;;;-0.65;51.21
36664;BME280;53333;51.976;20.144;2023-03-03T00:26:00;100591.19;;;-0.64;51.25
36664;BME280;53333;51.976;20.144;2023-03-03T00:28:39;100584.22;;;-0.62;51.13
36664;BME280;53333;51.976;20.144;2023-03-03T00:31:14;100584.19;;;-0.59;51.06
36664;BME280;53333;51.976;20.144;2023-03-03T00:33:48;100585.09;;;-0.57;51.06
36664;BME280;53333;51.976;20.144;2023-03-03T00:36:29;100579.88;;;-0.56;51.04
36664;BME280;53333;51.976;20.144;2023-03-03T00:39:18;100578.97;;;-0.55;50.92
36664;BME280;53333;51.976;20.144;2023-03-03T00:41:51;100585.13;;;-0.54;51.05
36664;BME280;53333;51.976;20.144;2023-03-03T00:44:40;100581.59;;;-0.56;50.95
36664;BME280;53333;51.976;20.144;2023-03-03T00:47:22;100574.59;;;-0.59;50.90
36664;BME280;53333;51.976;20.144;2023-03-03T00:49:59;100578.97;;;-0.62;51.02
36664;BME280;53333;51.976;20.144;2023-03-03T00:52:51;100582.44;;;-0.66;51.10
36664;BME280;53333;51.976;20.144;2023-03-03T00:55:26;100585.03;;;-0.71;51.25
36664;BME280;53333;51.976;20.144;2023-03-03T00:57:59;100582.41;;;-0.74;51.24
36664;BME280;53333;51.976;20.144;2023-03-03T01:00:37;100582.41;;;-0.76;51.19
36664;BME280;53333;51.976;20.144;2023-03-03T01:03:13;100576.28;;;-0.78;51.37
36664;BME280;53333;51.976;20.144;2023-03-03T01:05:46;100577.13;;;-0.82;51.39
36664;BME280;53333;51.976;20.144;2023-03-03T01:08:20;100572.75;;;-0.84;51.38
36664;BME280;53333;51.976;20.144;2023-03-03T01:10:55;100571.88;;;-0.83;51.31
36664;BME280;53333;51.976;20.144;2023-03-03T01:13:29;100568.38;;;-0.82;51.23
36664;BME280;53333;51.976;20.144;2023-03-03T01:16:02;100558.75;;;-0.82;51.23
36664;BME280;53333;51.976;20.144;2023-03-03T01:18:36;100552.66;;;-0.81;51.25
36664;BME280;53333;51.976;20.144;2023-03-03T01:21:09;100551.78;;;-0.81;51.25
36664;BME280;53333;51.976;20.144;2023-03-03T01:23:42;100544.78;;;-0.81;51.13
36664;BME280;53333;51.976;20.144;2023-03-03T01:26:16;100539.53;;;-0.81;51.20
36664;BME280;53333;51.976;20.144;2023-03-03T01:28:49;100531.66;;;-0.81;51.21
36664;BME280;53333;51.976;20.144;2023-03-03T01:31:22;100534.28;;;-0.79;51.20
36664;BME280;53333;51.976;20.144;2023-03-03T01:33:55;100531.69;;;-0.78;51.12
36664;BME280;53333;51.976;20.144;2023-03-03T01:36:28;100525.53;;;-0.77;51.14
36664;BME280;53333;51.976;20.144;2023-03-03T01:39:01;100529.06;;;-0.76;51.05
36664;BME280;53333;51.976;20.144;2023-03-03T01:41:36;100530.78;;;-0.77;51.15
36664;BME280;53333;51.976;20.144;2023-03-03T01:44:09;100533.41;;;-0.77;51.16
36664;BME280;53333;51.976;20.144;2023-03-03T01:46:47;100536.94;;;-0.76;51.05
36664;BME280;53333;51.976;20.144;2023-03-03T01:49:24;100528.16;;;-0.77;51.13
36664;BME280;53333;51.976;20.144;2023-03-03T01:51:59;100529.06;;;-0.76;51.21
36664;BME280;53333;51.976;20.144;2023-03-03T01:54:33;100523.81;;;-0.78;51.08
36664;BME280;53333;51.976;20.144;2023-03-03T01:57:10;100522.03;;;-0.79;51.23
36664;BME280;53333;51.976;20.144;2023-03-03T01:59:45;100518.56;;;-0.79;50.94
36664;BME280;53333;51.976;20.144;2023-03-03T02:02:19;100527.28;;;-0.82;51.16
36664;BME280;53333;51.976;20.144;2023-03-03T02:04:52;100520.28;;;-0.84;51.12
36664;BME280;53333;51.976;20.144;2023-03-03T02:07:27;100522.00;;;-0.85;51.17
36664;BME280;53333;51.976;20.144;2023-03-03T02:10:03;100517.66;;;-0.86;51.22
36664;BME280;53333;51.976;20.144;2023-03-03T02:12:39;100516.75;;;-0.86;51.11
36664;BME280;53333;51.976;20.144;2023-03-03T02:15:17;100509.78;;;-0.87;51.13
36664;BME280;53333;51.976;20.144;2023-03-03T02:17:51;100515.03;;;-0.87;51.04
36664;BME280;53333;51.976;20.144;2023-03-03T02:20:29;100498.41;;;-0.86;51.07
36664;BME280;53333;51.976;20.144;2023-03-03T02:23:06;100501.00;;;-0.88;51.09
36664;BME280;53333;51.976;20.144;2023-03-03T02:25:41;100503.66;;;-0.86;51.15
36664;BME280;53333;51.976;20.144;2023-03-03T02:28:18;100509.78;;;-0.86;51.09
36664;BME280;53333;51.976;20.144;2023-03-03T02:30:53;100506.25;;;-0.86;51.05
36664;BME280;53333;51.976;20.144;2023-03-03T02:33:27;100510.66;;;-0.85;51.09
36664;BME280;53333;51.976;20.144;2023-03-03T02:36:00;100507.16;;;-0.84;50.99
36664;BME280;53333;51.976;20.144;2023-03-03T02:38:35;100501.91;;;-0.86;51.00
36664;BME280;53333;51.976;20.144;2023-03-03T02:41:10;100504.53;;;-0.87;51.05
36664;BME280;53333;51.976;20.144;2023-03-03T02:43:48;100509.78;;;-0.87;51.09
36664;BME280;53333;51.976;20.144;2023-03-03T02:46:23;100506.25;;;-0.88;51.16
36664;BME280;53333;51.976;20.144;2023-03-03T02:48:56;100507.16;;;-0.89;51.17
36664;BME280;53333;51.976;20.144;2023-03-03T02:51:29;100504.53;;;-0.87;51.08
36664;BME280;53333;51.976;20.144;2023-03-03T02:54:02;100501.91;;;-0.87;51.16
36664;BME280;53333;51.976;20.144;2023-03-03T02:56:36;100508.03;;;-0.88;51.10
36664;BME280;53333;51.976;20.144;2023-03-03T02:59:11;100509.78;;;-0.89;51.13
36664;BME280;53333;51.976;20.144;2023-03-03T03:01:48;100507.13;;;-0.94;51.18
36664;BME280;53333;51.976;20.144;2023-03-03T03:04:24;100511.50;;;-0.96;51.21
36664;BME280;53333;51.976;20.144;2023-03-03T03:06:58;100505.38;;;-0.96;51.19
36664;BME280;53333;51.976;20.144;2023-03-03T03:09:32;100514.97;;;-0.97;51.35
36664;BME280;53333;51.976;20.144;2023-03-03T03:12:05;100513.22;;;-0.98;51.40
36664;BME280;53333;51.976;20.144;2023-03-03T03:14:41;100509.72;;;-0.98;51.38
36664;BME280;53333;51.976;20.144;2023-03-03T03:17:13;100506.25;;;-0.99;51.31
36664;BME280;53333;51.976;20.144;2023-03-03T03:19:47;100511.47;;;-1.00;51.38
36664;BME280;53333;51.976;20.144;2023-03-03T03:22:19;100512.34;;;-1.03;51.41
36664;BME280;53333;51.976;20.144;2023-03-03T03:24:53;100517.56;;;-1.04;51.50
36664;BME280;53333;51.976;20.144;2023-03-03T03:27:25;100513.19;;;-1.05;51.40
36664;BME280;53333;51.976;20.144;2023-03-03T03:30:00;100516.69;;;-1.06;51.49
36664;BME280;53333;51.976;20.144;2023-03-03T03:32:34;100507.94;;;-1.10;51.44
36664;BME280;53333;51.976;20.144;2023-03-03T03:35:07;100521.91;;;-1.11;51.61
36664;BME280;53333;51.976;20.144;2023-03-03T03:37:40;100519.31;;;-1.10;51.51
36664;BME280;53333;51.976;20.144;2023-03-03T03:40:12;100520.19;;;-1.04;51.57
36664;BME280;53333;51.976;20.144;2023-03-03T03:42:45;100511.50;;;-0.99;51.54
36664;BME280;53333;51.976;20.144;2023-03-03T03:45:19;100519.34;;;-0.93;51.34
36664;BME280;53333;51.976;20.144;2023-03-03T03:47:53;100512.41;;;-0.89;51.37
36664;BME280;53333;51.976;20.144;2023-03-03T03:50:26;100513.28;;;-0.84;51.30
36664;BME280;53333;51.976;20.144;2023-03-03T03:52:59;100510.69;;;-0.79;51.25
36664;BME280;53333;51.976;20.144;2023-03-03T03:55:33;100501.91;;;-0.77;51.36
36664;BME280;53333;51.976;20.144;2023-03-03T03:58:06;100510.69;;;-0.75;51.23
36664;BME280;53333;51.976;20.144;2023-03-03T04:00:41;100514.19;;;-0.73;51.21
36664;BME280;53333;51.976;20.144;2023-03-03T04:03:16;100506.34;;;-0.69;51.20
36664;BME280;53333;51.976;20.144;2023-03-03T04:05:51;100506.34;;;-0.66;51.13
36664;BME280;53333;51.976;20.144;2023-03-03T04:08:24;100500.22;;;-0.67;51.13
36664;BME280;53333;51.976;20.144;2023-03-03T04:10:58;100489.72;;;-0.65;51.04
36664;BME280;53333;51.976;20.144;2023-03-03T04:13:31;100483.59;;;-0.64;51.08
36664;BME280;53333;51.976;20.144;2023-03-03T04:16:10;100480.97;;;-0.63;51.12
36664;BME280;53333;51.976;20.144;2023-03-03T04:18:44;100475.72;;;-0.61;51.14
36664;BME280;53333;51.976;20.144;2023-03-03T04:21:19;100473.97;;;-0.59;51.09
36664;BME280;53333;51.976;20.144;2023-03-03T04:23:54;100481.00;;;-0.58;50.97
36664;BME280;53333;51.976;20.144;2023-03-03T04:26:26;100490.63;;;-0.57;51.08
36664;BME280;53333;51.976;20.144;2023-03-03T04:29:00;100478.38;;;-0.53;51.03
36664;BME280;53333;51.976;20.144;2023-03-03T04:31:34;100482.78;;;-0.48;51.05
36664;BME280;53333;51.976;20.144;2023-03-03T04:34:09;100476.63;;;-0.44;51.06
36664;BME280;53333;51.976;20.144;2023-03-03T04:36:42;100470.53;;;-0.41;50.96
36664;BME280;53333;51.976;20.144;2023-03-03T04:39:15;100470.53;;;-0.40;51.05
36664;BME280;53333;51.976;20.144;2023-03-03T04:41:49;100470.53;;;-0.35;51.01
36664;BME280;53333;51.976;20.144;2023-03-03T04:44:22;100464.41;;;-0.32;51.00
36664;BME280;53333;51.976;20.144;2023-03-03T04:46:56;100452.13;;;-0.29;50.91
36664;BME280;53333;51.976;20.144;2023-03-03T04:49:29;100460.00;;;-0.26;50.92
36664;BME280;53333;51.976;20.144;2023-03-03T04:52:02;100462.66;;;-0.21;50.83
36664;BME280;53333;51.976;20.144;2023-03-03T04:54:35;100460.91;;;-0.16;50.87
36664;BME280;53333;51.976;20.144;2023-03-03T04:57:08;100460.03;;;-0.10;50.91
36664;BME280;53333;51.976;20.144;2023-03-03T04:59:41;100460.88;;;-0.08;50.74
36664;BME280;53333;51.976;20.144;2023-03-03T05:02:15;100460.88;;;-0.05;50.80
36664;BME280;53333;51.976;20.144;2023-03-03T05:04:48;100465.28;;;0.01;50.78
36664;BME280;53333;51.976;20.144;2023-03-03T05:07:20;100460.03;;;0.01;50.77
36664;BME280;53333;51.976;20.144;2023-03-03T05:09:54;100457.41;;;-0.01;50.83
36664;BME280;53333;51.976;20.144;2023-03-03T05:12:27;100449.50;;;-0.03;50.93
36664;BME280;53333;51.976;20.144;2023-03-03T05:14:59;100443.41;;;-0.03;50.85
36664;BME280;53333;51.976;20.144;2023-03-03T05:17:34;100445.13;;;-0.04;50.90
36664;BME280;53333;51.976;20.144;2023-03-03T05:20:08;100444.25;;;-0.06;51.01
36664;BME280;53333;51.976;20.144;2023-03-03T05:22:41;100452.16;;;-0.06;50.84
36664;BME280;53333;51.976;20.144;2023-03-03T05:25:13;100454.78;;;-0.01;51.05
36664;BME280;53333;51.976;20.144;2023-03-03T05:27:46;100462.66;;;0.04;51.04
36664;BME280;53333;51.976;20.144;2023-03-03T05:30:19;100465.28;;;0.04;50.95
36664;BME280;53333;51.976;20.144;2023-03-03T05:32:53;100466.16;;;0.04;51.02
36664;BME280;53333;51.976;20.144;2023-03-03T05:35:26;100467.91;;;0.07;51.00
36664;BME280;53333;51.976;20.144;2023-03-03T05:37:59;100465.28;;;0.07;50.93
36664;BME280;53333;51.976;20.144;2023-03-03T05:40:36;100460.88;;;0.06;50.97
36664;BME280;53333;51.976;20.144;2023-03-03T05:43:09;100460.88;;;0.07;51.07
36664;BME280;53333;51.976;20.144;2023-03-03T05:45:41;100460.88;;;0.09;50.97
36664;BME280;53333;51.976;20.144;2023-03-03T05:48:16;100460.03;;;0.10;51.14
36664;BME280;53333;51.976;20.144;2023-03-03T05:50:48;100459.13;;;0.09;51.02
36664;BME280;53333;51.976;20.144;2023-03-03T05:53:21;100458.25;;;0.13;50.99
36664;BME280;53333;51.976;20.144;2023-03-03T05:55:54;100463.50;;;0.15;50.99
36664;BME280;53333;51.976;20.144;2023-03-03T05:58:27;100467.91;;;0.14;51.10
36664;BME280;53333;51.976;20.144;2023-03-03T06:01:00;100460.00;;;0.16;51.12
36664;BME280;53333;51.976;20.144;2023-03-03T06:03:35;100463.50;;;0.21;51.13
36664;BME280;53333;51.976;20.144;2023-03-03T06:06:07;100468.75;;;0.24;51.09
36664;BME280;53333;51.976;20.144;2023-03-03T06:08:40;100456.47;;;0.28;50.86
36664;BME280;53333;51.976;20.144;2023-03-03T06:11:13;100468.72;;;0.32;51.01
36664;BME280;53333;51.976;20.144;2023-03-03T06:13:47;100462.59;;;0.36;50.96
36664;BME280;53333;51.976;20.144;2023-03-03T06:16:20;100461.72;;;0.35;50.90
36664;BME280;53333;51.976;20.144;2023-03-03T06:18:54;100471.34;;;0.36;51.01
36664;BME280;53333;51.976;20.144;2023-03-03T06:21:27;100466.97;;;0.39;51.11
36664;BME280;53333;51.976;20.144;2023-03-03T06:23:59;100461.72;;;0.42;51.02
36664;BME280;53333;51.976;20.144;2023-03-03T06:26:32;100471.31;;;0.47;51.00
36664;BME280;53333;51.976;20.144;2023-03-03T06:29:05;100459.03;;;0.49;50.94
36664;BME280;53333;51.976;20.144;2023-03-03T06:31:38;100453.78;;;0.52;51.02
36664;BME280;53333;51.976;20.144;2023-03-03T06:34:12;100450.28;;;0.55;50.92
36664;BME280;53333;51.976;20.144;2023-03-03T06:36:45;100460.78;;;0.58;50.95
36664;BME280;53333;51.976;20.144;2023-03-03T06:39:18;100460.78;;;0.60;50.83
36664;BME280;53333;51.976;20.144;2023-03-03T06:41:51;100454.63;;;0.62;50.99
36664;BME280;53333;51.976;20.144;2023-03-03T06:44:24;100456.38;;;0.63;51.00
36664;BME280;53333;51.976;20.144;2023-03-03T06:46:59;100463.41;;;0.64;50.92
36664;BME280;53333;51.976;20.144;2023-03-03T06:49:33;100466.03;;;0.66;51.02
36664;BME280;53333;51.976;20.144;2023-03-03T06:52:09;100459.88;;;0.64;50.99
36664;BME280;53333;51.976;20.144;2023-03-03T06:54:43;100459.00;;;0.62;51.08
36664;BME280;53333;51.976;20.144;2023-03-03T06:57:17;100476.56;;;0.60;51.15
36664;BME280;53333;51.976;20.144;2023-03-03T06:59:52;100473.91;;;0.63;51.01
36664;BME280;53333;51.976;20.144;2023-03-03T07:02:26;100470.41;;;0.62;51.10
36664;BME280;53333;51.976;20.144;2023-03-03T07:05:00;100465.13;;;0.64;51.04
36664;BME280;53333;51.976;20.144;2023-03-03T07:07:33;100462.50;;;0.68;51.05
36664;BME280;53333;51.976;20.144;2023-03-03T07:10:10;100469.50;;;0.74;51.06
36664;BME280;53333;51.976;20.144;2023-03-03T07:12:44;100468.63;;;0.77;51.02
36664;BME280;53333;51.976;20.144;2023-03-03T07:15:19;100460.69;;;0.78;51.10
36664;BME280;53333;51.976;20.144;2023-03-03T07:17:54;100458.06;;;0.80;51.07
36664;BME280;53333;51.976;20.144;2023-03-03T07:20:31;100439.66;;;0.81;50.99
36664;BME280;53333;51.976;20.144;2023-03-03T07:23:08;100442.25;;;0.86;51.08
36664;BME280;53333;51.976;20.144;2023-03-03T07:25:47;100444.00;;;0.88;51.00
36664;BME280;53333;51.976;20.144;2023-03-03T07:28:21;100449.28;;;0.90;51.01
36664;BME280;53333;51.976;20.144;2023-03-03T07:30:55;100433.50;;;0.90;51.09
36664;BME280;53333;51.976;20.144;2023-03-03T07:33:30;100433.50;;;0.90;51.03
36664;BME280;53333;51.976;20.144;2023-03-03T07:36:18;100440.53;;;0.88;51.13
36664;BME280;53333;51.976;20.144;2023-03-03T07:38:56;100437.91;;;0.86;51.22
36664;BME280;53333;51.976;20.144;2023-03-03T07:41:30;100450.13;;;0.90;51.18
36664;BME280;53333;51.976;20.144;2023-03-03T07:44:10;100459.78;;;0.95;51.18
36664;BME280;53333;51.976;20.144;2023-03-03T07:46:47;100444.84;;;1.00;51.21
36664;BME280;53333;51.976;20.144;2023-03-03T07:49:21;100447.44;;;1.03;51.02
36664;BME280;53333;51.976;20.144;2023-03-03T07:51:56;100450.94;;;1.05;51.00
36664;BME280;53333;51.976;20.144;2023-03-03T07:54:30;100445.66;;;1.09;50.99
36664;BME280;53333;51.976;20.144;2023-03-03T07:57:11;100449.13;;;1.15;51.06
36664;BME280;53333;51.976;20.144;2023-03-03T07:59:46;100448.25;;;1.20;51.06
36664;BME280;53333;51.976;20.144;2023-03-03T08:02:28;100458.78;;;1.17;51.05
36664;BME280;53333;51.976;20.144;2023-03-03T08:08:13;100464.91;;;1.18;51.16
36664;BME280;53333;51.976;20.144;2023-03-03T08:10:48;100462.28;;;1.16;51.17
36664;BME280;53333;51.976;20.144;2023-03-03T08:13:22;100454.41;;;1.15;51.12
36664;BME280;53333;51.976;20.144;2023-03-03T08:15:55;100453.53;;;1.14;51.36
36664;BME280;53333;51.976;20.144;2023-03-03T08:18:33;100452.66;;;1.15;51.21
36664;BME280;53333;51.976;20.144;2023-03-03T08:21:06;100454.34;;;1.22;51.15
36664;BME280;53333;51.976;20.144;2023-03-03T08:23:42;100461.31;;;1.34;51.22
36664;BME280;53333;51.976;20.144;2023-03-03T08:26:16;100455.09;;;1.46;51.14
36664;BME280;53333;51.976;20.144;2023-03-03T08:28:49;100458.53;;;1.54;50.99
36664;BME280;53333;51.976;20.144;2023-03-03T08:31:22;100463.78;;;1.60;50.86
36664;BME280;53333;51.976;20.144;2023-03-03T08:34:11;100471.66;;;1.63;50.86
36664;BME280;53333;51.976;20.144;2023-03-03T08:36:44;100475.09;;;1.70;50.81
36664;BME280;53333;51.976;20.144;2023-03-03T08:39:19;100478.56;;;1.78;50.88
36664;BME280;53333;51.976;20.144;2023-03-03T08:41:52;100482.88;;;1.89;50.74
36664;BME280;53333;51.976;20.144;2023-03-03T08:44:24;100474.00;;;2.00;50.65
36664;BME280;53333;51.976;20.144;2023-03-03T08:46:57;100472.19;;;2.03;50.62
36664;BME280;53333;51.976;20.144;2023-03-03T08:49:30;100467.88;;;1.98;50.68
36664;BME280;53333;51.976;20.144;2023-03-03T08:52:03;100464.41;;;1.95;50.78
36664;BME280;53333;51.976;20.144;2023-03-03T08:54:37;100468.78;;;1.93;50.85
36664;BME280;53333;51.976;20.144;2023-03-03T08:57:11;100470.56;;;1.92;50.89
36664;BME280;53333;51.976;20.144;2023-03-03T08:59:44;100468.78;;;1.91;51.04
36664;BME280;53333;51.976;20.144;2023-03-03T09:02:18;100471.38;;;1.97;50.93
36664;BME280;53333;51.976;20.144;2023-03-03T09:04:50;100470.44;;;2.05;50.87
36664;BME280;53333;51.976;20.144;2023-03-03T09:07:23;100471.19;;;2.19;50.85
36664;BME280;53333;51.976;20.144;2023-03-03T09:09:57;100475.50;;;2.28;50.76
36664;BME280;53333;51.976;20.144;2023-03-03T09:12:32;100474.56;;;2.33;50.74
36664;BME280;53333;51.976;20.144;2023-03-03T09:15:17;100472.78;;;2.37;50.61
36664;BME280;53333;51.976;20.144;2023-03-03T09:17:51;100475.38;;;2.40;50.68
36664;BME280;53333;51.976;20.144;2023-03-03T09:20:27;100478.03;;;2.40;50.81
36664;BME280;53333;51.976;20.144;2023-03-03T09:23:16;100481.44;;;2.48;50.72
36664;BME280;53333;51.976;20.144;2023-03-03T09:25:54;100483.16;;;2.56;50.88
36664;BME280;53333;51.976;20.144;2023-03-03T09:28:28;100491.03;;;2.57;50.78
36664;BME280;53333;51.976;20.144;2023-03-03T09:31:02;100493.63;;;2.62;50.74
36664;BME280;53333;51.976;20.144;2023-03-03T09:33:39;100490.06;;;2.66;50.71
36664;BME280;53333;51.976;20.144;2023-03-03T09:36:17;100483.91;;;2.67;50.73
36664;BME280;53333;51.976;20.144;2023-03-03T09:38:51;100483.94;;;2.62;50.75
36664;BME280;53333;51.976;20.144;2023-03-03T09:47:29;100473.69;;;2.33;51.18
36664;BME280;53333;51.976;20.144;2023-03-03T09:50:06;100479.84;;;2.35;51.11
36664;BME280;53333;51.976;20.144;2023-03-03T09:52:45;100486.78;;;2.42;51.08
36664;BME280;53333;51.976;20.144;2023-03-03T09:55:26;100482.31;;;2.49;51.12
36664;BME280;53333;51.976;20.144;2023-03-03T09:58:05;100475.22;;;2.57;51.00
36664;BME280;53333;51.976;20.144;2023-03-03T10:00:44;100476.03;;;2.61;50.85
36664;BME280;53333;51.976;20.144;2023-03-03T10:03:25;100480.44;;;2.63;50.87
36664;BME280;53333;51.976;20.144;2023-03-03T10:06:02;100473.34;;;2.67;50.93
36664;BME280;53333;51.976;20.144;2023-03-03T10:08:44;100475.91;;;2.73;50.88
36664;BME280;53333;51.976;20.144;2023-03-03T10:11:22;100467.06;;;2.76;50.88
36664;BME280;53333;51.976;20.144;2023-03-03T10:14:04;100460.91;;;2.78;50.85
36664;BME280;53333;51.976;20.144;2023-03-03T10:16:47;100466.16;;;2.81;50.87
36664;BME280;53333;51.976;20.144;2023-03-03T10:19:29;100458.16;;;2.87;50.80
36664;BME280;53333;51.976;20.144;2023-03-03T10:22:16;100458.09;;;2.92;50.64
36664;BME280;53333;51.976;20.144;2023-03-03T10:24:53;100454.66;;;2.84;50.72
36664;BME280;53333;51.976;20.144;2023-03-03T10:27:34;100453.06;;;2.72;50.78
36664;BME280;53333;51.976;20.144;2023-03-03T10:30:12;100464.69;;;2.56;51.03
36664;BME280;53333;51.976;20.144;2023-03-03T10:33:11;100455.19;;;2.36;51.35
36664;BME280;53333;51.976;20.144;2023-03-03T10:38:51;100457.13;;;2.17;51.50
36664;BME280;53333;51.976;20.144;2023-03-03T10:41:34;100457.25;;;2.08;51.57
36664;BME280;53333;51.976;20.144;2023-03-03T10:50:00;100452.88;;;2.04;51.64
36664;BME280;53333;51.976;20.144;2023-03-03T10:52:37;100460.72;;;2.13;51.67
36664;BME280;53333;51.976;20.144;2023-03-03T10:55:18;100458.84;;;2.23;51.49
36664;BME280;53333;51.976;20.144;2023-03-03T10:57:57;100467.63;;;2.22;51.45
36664;BME280;53333;51.976;20.144;2023-03-03T11:00:33;100460.66;;;2.17;51.51
36664;BME280;53333;51.976;20.144;2023-03-03T11:03:30;100455.50;;;2.07;51.56
36664;BME280;53333;51.976;20.144;2023-03-03T11:06:08;100459.09;;;1.99;51.60
36664;BME280;53333;51.976;20.144;2023-03-03T11:08:46;100459.13;;;1.95;51.68
36664;BME280;53333;51.976;20.144;2023-03-03T11:11:24;100452.09;;;1.95;51.64
36664;BME280;53333;51.976;20.144;2023-03-03T11:14:02;100448.56;;;1.98;51.58
36664;BME280;53333;51.976;20.144;2023-03-03T11:16:40;100448.56;;;1.96;51.64
36664;BME280;53333;51.976;20.144;2023-03-03T11:19:24;100453.88;;;1.93;51.71
36664;BME280;53333;51.976;20.144;2023-03-03T11:22:03;100454.75;;;1.89;51.67
36664;BME280;53333;51.976;20.144;2023-03-03T11:24:42;100461.84;;;1.84;51.78
36664;BME280;53333;51.976;20.144;2023-03-03T11:27:25;100461.03;;;1.77;51.82
36664;BME280;53333;51.976;20.144;2023-03-03T11:30:10;100461.94;;;1.72;51.97
36664;BME280;53333;51.976;20.144;2023-03-03T11:32:51;100461.91;;;1.73;52.01
36664;BME280;53333;51.976;20.144;2023-03-03T11:35:26;100466.28;;;1.77;51.88
36664;BME280;53333;51.976;20.144;2023-03-03T11:38:18;100469.75;;;1.83;51.82
36664;BME280;53333;51.976;20.144;2023-03-03T11:41:00;100468.81;;;1.87;51.86
36664;BME280;53333;51.976;20.144;2023-03-03T11:43:37;100463.50;;;1.93;52.00
36664;BME280;53333;51.976;20.144;2023-03-03T11:46:36;100459.94;;;2.00;51.73
36664;BME280;53333;51.976;20.144;2023-03-03T11:49:11;100466.03;;;2.08;51.67
36664;BME280;53333;51.976;20.144;2023-03-03T11:51:49;100452.78;;;2.16;51.60
36664;BME280;53333;51.976;20.144;2023-03-03T11:54:25;100450.97;;;2.21;51.58
36664;BME280;53333;51.976;20.144;2023-03-03T11:57:04;100441.25;;;2.23;51.60
36664;BME280;53333;51.976;20.144;2023-03-03T11:59:47;100450.09;;;2.21;51.51
36664;BME280;53333;51.976;20.144;2023-03-03T12:02:28;100442.19;;;2.22;51.58
36664;BME280;53333;51.976;20.144;2023-03-03T12:05:06;100435.13;;;2.24;51.61
36664;BME280;53333;51.976;20.144;2023-03-03T12:07:43;100436.81;;;2.30;51.65
36664;BME280;53333;51.976;20.144;2023-03-03T12:10:21;100436.88;;;2.27;51.48
36664;BME280;53333;51.976;20.144;2023-03-03T12:12:58;100432.53;;;2.20;51.70
36664;BME280;53333;51.976;20.144;2023-03-03T12:15:36;100441.44;;;2.09;51.72
36664;BME280;53333;51.976;20.144;2023-03-03T12:18:19;100434.44;;;2.02;51.67
36664;BME280;53333;51.976;20.144;2023-03-03T12:21:06;100427.47;;;1.98;51.85
36664;BME280;53333;51.976;20.144;2023-03-03T12:23:50;100434.53;;;1.93;51.95
36664;BME280;53333;51.976;20.144;2023-03-03T12:26:27;100434.56;;;1.87;51.95
36664;BME280;53333;51.976;20.144;2023-03-03T12:29:04;100427.66;;;1.75;52.10
36664;BME280;53333;51.976;20.144;2023-03-03T12:31:42;100433.91;;;1.66;52.05
36664;BME280;53333;51.976;20.144;2023-03-03T12:34:22;100436.56;;;1.61;52.22
36664;BME280;53333;51.976;20.144;2023-03-03T12:37:05;100430.44;;;1.56;52.20
36664;BME280;53333;51.976;20.144;2023-03-03T12:39:44;100434.88;;;1.51;52.15
36664;BME280;53333;51.976;20.144;2023-03-03T12:42:23;100431.38;;;1.48;52.31
36664;BME280;53333;51.976;20.144;2023-03-03T12:45:00;100435.78;;;1.50;52.24
36664;BME280;53333;51.976;20.144;2023-03-03T12:47:40;100438.38;;;1.55;52.16
36664;BME280;53333;51.976;20.144;2023-03-03T12:50:20;100446.19;;;1.62;52.16
36664;BME280;53333;51.976;20.144;2023-03-03T12:52:57;100439.19;;;1.60;52.08
36664;BME280;53333;51.976;20.144;2023-03-03T12:55:35;100435.66;;;1.61;52.10
36664;BME280;53333;51.976;20.144;2023-03-03T12:58:13;100445.28;;;1.67;52.06
36664;BME280;53333;51.976;20.144;2023-03-03T13:00:52;100445.31;;;1.65;52.06
36664;BME280;53333;51.976;20.144;2023-03-03T13:03:31;100447.97;;;1.59;52.12
36664;BME280;53333;51.976;20.144;2023-03-03T13:06:26;100441.88;;;1.52;52.17
36664;BME280;53333;51.976;20.144;2023-03-03T13:09:02;100448.06;;;1.43;52.13
36664;BME280;53333;51.976;20.144;2023-03-03T13:14:27;100444.63;;;1.34;52.39
36664;BME280;53333;51.976;20.144;2023-03-03T13:17:07;100439.38;;;1.34;52.30
36664;BME280;53333;51.976;20.144;2023-03-03T13:19:46;100441.16;;;1.30;52.36
36664;BME280;53333;51.976;20.144;2023-03-03T13:22:26;100441.19;;;1.24;52.41
36664;BME280;53333;51.976;20.144;2023-03-03T13:25:05;100434.22;;;1.21;52.43
36664;BME280;53333;51.976;20.144;2023-03-03T13:27:39;100421.00;;;1.24;52.46
36664;BME280;53333;51.976;20.144;2023-03-03T13:30:14;100415.69;;;1.31;52.42
36664;BME280;53333;51.976;20.144;2023-03-03T13:32:49;100421.81;;;1.37;52.28
36664;BME280;53333;51.976;20.144;2023-03-03T13:35:30;100422.66;;;1.42;52.24
36664;BME280;53333;51.976;20.144;2023-03-03T13:38:04;100420.84;;;1.48;52.20
36664;BME280;53333;51.976;20.144;2023-03-03T13:40:42;100422.59;;;1.53;52.10
36664;BME280;53333;51.976;20.144;2023-03-03T13:43:16;100422.53;;;1.58;52.24
36664;BME280;53333;51.976;20.144;2023-03-03T13:45:53;100411.97;;;1.59;52.10
36664;BME280;53333;51.976;20.144;2023-03-03T13:48:33;100410.25;;;1.60;52.15
36664;BME280;53333;51.976;20.144;2023-03-03T13:51:13;100410.25;;;1.60;52.08